createdAt,value
2018-12-07T00:00:05.236Z,95.47
2018-12-07T00:01:05.225Z,95.27
2018-12-07T00:02:05.204Z,95.17
2018-12-07T00:03:05.192Z,95.27
2018-12-07T00:04:05.182Z,95.37
2018-12-07T00:05:05.175Z,95.37
2018-12-07T00:06:05.174Z,95.37
2018-12-07T00:07:05.152Z,95.37
2018-12-07T00:08:05.135Z,95.47
2018-12-07T00:09:05.136Z,95.27
2018-12-07T00:10:05.118Z,95.47
2018-12-07T00:11:05.109Z,95.17
2018-12-07T00:12:05.140Z,95.37
2018-12-07T00:13:05.082Z,95.12
2018-12-07T00:14:05.071Z,95.27
2018-12-07T00:15:05.060Z,94.85
2018-12-07T00:16:05.060Z,94.45
2018-12-07T00:17:05.039Z,94.76
2018-12-07T00:18:05.049Z,95.47
2018-12-07T00:19:05.025Z,95.23
2018-12-07T00:20:05.010Z,95.17
2018-12-07T00:21:05.000Z,95.17
2018-12-07T00:22:04.987Z,95.27
2018-12-07T00:23:04.982Z,95.12
2018-12-07T00:24:04.979Z,94.55
2018-12-07T00:25:04.957Z,94.51
2018-12-07T00:26:04.947Z,94.20
2018-12-07T00:27:04.949Z,94.51
2018-12-07T00:28:04.948Z,94.40
2018-12-07T00:29:04.931Z,94.40
2018-12-07T00:30:04.907Z,94.30
2018-12-07T00:31:04.898Z,94.20
2018-12-07T00:32:04.879Z,94.20
2018-12-07T00:33:04.866Z,94.40
2018-12-07T00:34:04.900Z,94.10
2018-12-07T00:35:04.847Z,94.40
2018-12-07T00:36:04.843Z,94.30
2018-12-07T00:37:04.831Z,93.89
2018-12-07T00:38:04.820Z,93.59
2018-12-07T00:39:04.803Z,93.79
2018-12-07T00:40:04.812Z,93.99
2018-12-07T00:41:04.867Z,93.27
2018-12-07T00:42:04.793Z,93.48
2018-12-07T00:43:04.770Z,93.68
2018-12-07T00:44:04.749Z,93.64
2018-12-07T00:45:04.745Z,93.48
2018-12-07T00:46:04.763Z,93.59
2018-12-07T00:47:04.723Z,93.68
2018-12-07T00:48:04.714Z,93.07
2018-12-07T00:49:04.696Z,93.59
2018-12-07T00:50:04.687Z,93.74
2018-12-07T00:51:04.681Z,93.44
2018-12-07T00:52:04.680Z,93.54
2018-12-07T00:53:04.653Z,93.02
2018-12-07T00:54:04.652Z,93.54
2018-12-07T00:55:04.637Z,93.13
2018-12-07T00:56:04.641Z,93.64
2018-12-07T00:57:04.611Z,92.10
2018-12-07T00:58:04.642Z,92.21
2018-12-07T00:59:04.591Z,92.27
2018-12-07T01:00:04.581Z,92.21
2018-12-07T01:01:04.576Z,92.00
2018-12-07T01:02:04.565Z,92.10
2018-12-07T01:03:04.550Z,92.10
2018-12-07T01:04:04.553Z,92.41
2018-12-07T01:05:04.558Z,92.31
2018-12-07T01:06:04.523Z,92.41
2018-12-07T01:07:04.514Z,91.80
2018-12-07T01:08:04.495Z,92.27
2018-12-07T01:09:04.495Z,92.31
2018-12-07T01:10:04.482Z,92.41
2018-12-07T01:11:04.462Z,92.41
2018-12-07T01:12:04.462Z,92.27
2018-12-07T01:13:04.450Z,91.96
2018-12-07T01:14:04.449Z,91.96
2018-12-07T01:15:04.431Z,92.16
2018-12-07T01:16:04.412Z,92.31
2018-12-07T01:17:04.404Z,91.86
2018-12-07T01:18:04.400Z,91.75
2018-12-07T01:19:04.379Z,91.96
2018-12-07T01:20:04.384Z,91.86
2018-12-07T01:21:04.357Z,91.96
2018-12-07T01:22:04.398Z,91.75
2018-12-07T01:23:04.336Z,91.86
2018-12-07T01:24:04.349Z,91.96
2018-12-07T01:25:04.322Z,91.86
2018-12-07T01:26:04.306Z,92.06
2018-12-07T01:27:04.300Z,91.86
2018-12-07T01:28:04.303Z,91.86
2018-12-07T01:29:04.279Z,92.27
2018-12-07T01:30:04.273Z,92.06
2018-12-07T01:31:04.266Z,91.86
2018-12-07T01:32:04.248Z,91.44
2018-12-07T01:33:04.235Z,92.06
2018-12-07T01:34:04.239Z,91.40
2018-12-07T01:35:04.215Z,91.71
2018-12-07T01:36:04.197Z,92.22
2018-12-07T01:37:04.192Z,91.71
2018-12-07T01:38:04.182Z,92.12
2018-12-07T01:39:04.216Z,91.82
2018-12-07T01:40:04.156Z,91.75
2018-12-07T01:41:04.148Z,91.30
2018-12-07T01:42:04.140Z,90.89
2018-12-07T01:43:04.123Z,91.50
2018-12-07T01:44:04.116Z,90.89
2018-12-07T01:45:04.140Z,90.58
2018-12-07T01:46:04.091Z,90.69
2018-12-07T01:47:04.079Z,91.09
2018-12-07T01:48:04.072Z,91.20
2018-12-07T01:49:04.064Z,90.69
2018-12-07T01:50:04.083Z,90.89
2018-12-07T01:51:11.770Z,91.40
2018-12-07T01:52:11.809Z,90.89
2018-12-07T01:53:11.849Z,90.54
2018-12-07T01:54:04.009Z,90.89
2018-12-07T01:55:03.999Z,90.69
2018-12-07T01:56:11.046Z,90.79
2018-12-07T01:57:13.932Z,91.09
2018-12-07T01:58:03.968Z,91.20
2018-12-07T01:59:11.971Z,91.61
2018-12-07T02:00:03.960Z,91.40
2018-12-07T02:01:11.502Z,91.91
2018-12-07T02:02:10.980Z,91.71
2018-12-07T02:03:03.913Z,92.32
2018-12-07T02:04:11.568Z,93.04
2018-12-07T02:05:03.894Z,93.45
2018-12-07T02:06:03.877Z,93.25
2018-12-07T02:07:03.870Z,93.45
2018-12-07T02:08:03.897Z,93.45
2018-12-07T02:09:03.844Z,93.25
2018-12-07T02:10:03.838Z,93.49
2018-12-07T02:11:03.831Z,93.45
2018-12-07T02:12:03.814Z,93.60
2018-12-07T02:13:03.811Z,93.49
2018-12-07T02:14:03.820Z,93.60
2018-12-07T02:15:03.782Z,93.08
2018-12-07T02:16:03.775Z,93.49
2018-12-07T02:17:03.764Z,93.39
2018-12-07T02:18:03.749Z,93.08
2018-12-07T02:19:03.759Z,93.45
2018-12-07T02:20:03.733Z,93.25
2018-12-07T02:21:03.735Z,92.27
2018-12-07T02:22:03.711Z,92.22
2018-12-07T02:23:03.698Z,92.32
2018-12-07T02:24:03.688Z,92.22
2018-12-07T02:25:03.697Z,92.22
2018-12-07T02:26:03.664Z,91.71
2018-12-07T02:27:03.654Z,91.71
2018-12-07T02:28:03.652Z,91.91
2018-12-07T02:29:03.641Z,91.71
2018-12-07T02:30:03.664Z,91.91
2018-12-07T02:31:03.612Z,91.71
2018-12-07T02:32:03.601Z,91.82
2018-12-07T02:33:03.596Z,92.02
2018-12-07T02:34:03.587Z,91.46
2018-12-07T02:35:03.586Z,91.87
2018-12-07T02:36:03.571Z,91.56
2018-12-07T02:37:03.558Z,91.91
2018-12-07T02:38:03.539Z,91.82
2018-12-07T02:39:03.527Z,91.26
2018-12-07T02:40:03.521Z,91.09
2018-12-07T02:41:03.549Z,91.36
2018-12-07T02:42:03.494Z,91.67
2018-12-07T02:43:03.491Z,91.26
2018-12-07T02:44:03.478Z,92.08
2018-12-07T02:45:03.467Z,91.77
2018-12-07T02:46:03.455Z,91.56
2018-12-07T02:47:03.459Z,91.77
2018-12-07T02:48:03.434Z,91.97
2018-12-07T02:49:03.426Z,92.28
2018-12-07T02:50:03.407Z,93.51
2018-12-07T02:51:03.401Z,93.55
2018-12-07T02:52:03.402Z,93.25
2018-12-07T02:53:03.387Z,93.45
2018-12-07T02:54:03.366Z,93.45
2018-12-07T02:55:03.359Z,93.55
2018-12-07T02:56:03.360Z,94.37
2018-12-07T02:57:03.357Z,95.20
2018-12-07T02:58:03.331Z,95.20
2018-12-07T02:59:03.316Z,95.20
2018-12-07T03:00:03.320Z,95.50
2018-12-07T03:01:03.294Z,95.50
2018-12-07T03:02:03.292Z,95.91
2018-12-07T03:03:03.314Z,96.22
2018-12-07T03:04:03.262Z,96.78
2018-12-07T03:05:03.250Z,96.78
2018-12-07T03:06:03.235Z,97.24
2018-12-07T03:07:03.229Z,96.94
2018-12-07T03:08:03.231Z,97.49
2018-12-07T03:09:03.250Z,97.49
2018-12-07T03:10:03.193Z,98.11
2018-12-07T03:11:03.189Z,98.42
2018-12-07T03:12:03.176Z,98.42
2018-12-07T03:13:03.165Z,98.72
2018-12-07T03:14:03.155Z,98.52
2018-12-07T03:15:03.155Z,98.52
2018-12-07T03:16:03.145Z,98.21
2018-12-07T03:17:03.140Z,97.80
2018-12-07T03:18:03.109Z,98.32
2018-12-07T03:19:03.103Z,98.52
2018-12-07T03:20:03.164Z,98.83
2018-12-07T03:21:03.077Z,98.36
2018-12-07T03:22:03.073Z,98.52
2018-12-07T03:23:03.053Z,98.67
2018-12-07T03:24:03.044Z,98.87
2018-12-07T03:25:03.033Z,98.97
2018-12-07T03:26:03.037Z,98.97
2018-12-07T03:27:03.018Z,98.36
2018-12-07T03:28:03.006Z,98.93
2018-12-07T03:29:02.995Z,98.57
2018-12-07T03:30:02.983Z,99.28
2018-12-07T03:31:02.986Z,99.79
2018-12-07T03:32:02.966Z,98.57
2018-12-07T03:33:02.956Z,98.72
2018-12-07T03:34:02.942Z,98.52
2018-12-07T03:35:02.932Z,99.24
2018-12-07T03:36:02.938Z,99.03
2018-12-07T03:37:02.922Z,98.93
2018-12-07T03:38:02.895Z,98.52
2018-12-07T03:39:02.890Z,98.62
2018-12-07T03:40:02.878Z,98.52
2018-12-07T03:41:02.868Z,98.32
2018-12-07T03:42:02.889Z,98.52
2018-12-07T03:43:02.850Z,99.75
2018-12-07T03:44:02.835Z,99.13
2018-12-07T03:45:02.823Z,99.69
2018-12-07T03:46:02.816Z,98.46
2018-12-07T03:47:02.801Z,98.52
2018-12-07T03:48:02.837Z,98.93
2018-12-07T03:49:02.779Z,98.83
2018-12-07T03:50:02.768Z,98.52
2018-12-07T03:51:02.790Z,98.62
2018-12-07T03:52:02.751Z,98.83
2018-12-07T03:53:02.748Z,97.80
2018-12-07T03:54:02.740Z,98.00
2018-12-07T03:55:02.722Z,98.11
2018-12-07T03:56:02.704Z,97.70
2018-12-07T03:57:02.707Z,98.11
2018-12-07T03:58:02.689Z,98.21
2018-12-07T03:59:02.713Z,97.39
2018-12-07T04:00:02.667Z,98.07
2018-12-07T04:01:02.656Z,98.11
2018-12-07T04:02:02.646Z,98.00
2018-12-07T04:03:02.639Z,97.65
2018-12-07T04:04:02.637Z,97.45
2018-12-07T04:05:02.622Z,97.04
2018-12-07T04:06:02.603Z,97.14
2018-12-07T04:07:02.594Z,97.24
2018-12-07T04:08:02.578Z,97.24
2018-12-07T04:09:02.576Z,97.34
2018-12-07T04:10:02.574Z,97.04
2018-12-07T04:11:02.553Z,97.04
2018-12-07T04:12:02.537Z,97.45
2018-12-07T04:13:02.532Z,97.34
2018-12-07T04:14:02.521Z,96.53
2018-12-07T04:15:02.530Z,97.14
2018-12-07T04:16:02.498Z,97.65
2018-12-07T04:17:02.494Z,97.55
2018-12-07T04:18:02.472Z,96.83
2018-12-07T04:19:02.466Z,96.53
2018-12-07T04:20:02.459Z,97.14
2018-12-07T04:21:02.477Z,96.63
2018-12-07T04:22:02.435Z,96.94
2018-12-07T04:23:02.427Z,96.83
2018-12-07T04:24:02.406Z,97.40
2018-12-07T04:25:02.399Z,96.89
2018-12-07T04:26:02.388Z,96.22
2018-12-07T04:27:02.401Z,97.40
2018-12-07T04:28:02.372Z,97.30
2018-12-07T04:29:02.354Z,96.99
2018-12-07T04:30:02.354Z,97.40
2018-12-07T04:31:02.342Z,97.04
2018-12-07T04:32:02.322Z,96.58
2018-12-07T04:33:02.316Z,97.55
2018-12-07T04:34:02.299Z,97.20
2018-12-07T04:35:02.303Z,97.14
2018-12-07T04:36:07.343Z,97.24
2018-12-07T04:37:03.284Z,97.30
2018-12-07T04:38:02.264Z,97.09
2018-12-07T04:39:02.329Z,97.75
2018-12-07T04:40:02.247Z,97.75
2018-12-07T04:41:02.231Z,97.65
2018-12-07T04:42:02.216Z,97.75
2018-12-07T04:43:02.218Z,97.75
2018-12-07T04:44:02.195Z,98.27
2018-12-07T04:45:02.184Z,97.55
2018-12-07T04:46:02.187Z,98.07
2018-12-07T04:47:02.164Z,98.37
2018-12-07T04:48:02.182Z,97.45
2018-12-07T04:49:02.149Z,97.91
2018-12-07T04:50:02.139Z,97.91
2018-12-07T04:51:02.128Z,97.91
2018-12-07T04:52:02.115Z,98.07
2018-12-07T04:53:02.133Z,98.83
2018-12-07T04:54:02.096Z,99.60
2018-12-07T04:55:02.078Z,99.45
2018-12-07T04:56:02.072Z,98.63
2018-12-07T04:57:02.086Z,99.45
2018-12-07T04:58:02.085Z,98.43
2018-12-07T04:59:02.044Z,98.43
2018-12-07T05:00:02.045Z,98.94
2018-12-07T05:01:02.018Z,98.88
2018-12-07T05:02:02.002Z,98.53
2018-12-07T05:03:01.998Z,98.37
2018-12-07T05:04:01.986Z,98.47
2018-12-07T05:05:02.008Z,98.47
2018-12-07T05:06:01.974Z,98.58
2018-12-07T05:07:01.949Z,98.83
2018-12-07T05:08:01.939Z,98.99
2018-12-07T05:09:01.936Z,99.50
2018-12-07T05:10:01.925Z,98.99
2018-12-07T05:11:01.955Z,99.19
2018-12-07T05:12:01.893Z,99.19
2018-12-07T05:13:01.890Z,99.40
2018-12-07T05:14:01.881Z,99.91
2018-12-07T05:15:01.863Z,99.80
2018-12-07T05:16:01.857Z,99.91
2018-12-07T05:17:01.859Z,99.91
2018-12-07T05:18:01.833Z,99.99
2018-12-07T05:19:01.824Z,99.99
2018-12-07T05:20:01.812Z,99.99
2018-12-07T05:21:01.840Z,99.99
2018-12-07T05:22:01.793Z,99.99
2018-12-07T05:23:01.776Z,99.99
2018-12-07T05:24:01.765Z,99.99
2018-12-07T05:25:01.761Z,99.99
2018-12-07T05:26:01.750Z,99.99
2018-12-07T05:27:01.778Z,99.99
2018-12-07T05:28:01.731Z,99.99
2018-12-07T05:29:01.727Z,99.99
2018-12-07T05:30:01.708Z,99.99
2018-12-07T05:31:01.748Z,99.99
2018-12-07T05:32:01.685Z,99.99
2018-12-07T05:33:01.699Z,99.99
2018-12-07T05:34:01.663Z,99.99
2018-12-07T05:35:01.647Z,99.99
2018-12-07T05:36:01.641Z,99.99
2018-12-07T05:37:01.631Z,99.99
2018-12-07T05:38:01.627Z,99.99
2018-12-07T05:39:01.617Z,99.99
2018-12-07T05:40:01.594Z,99.99
2018-12-07T05:41:01.591Z,99.99
2018-12-07T05:42:01.574Z,99.99
2018-12-07T05:43:01.598Z,99.99
2018-12-07T05:44:01.556Z,99.99
2018-12-07T05:45:01.547Z,99.99
2018-12-07T05:46:01.533Z,99.99
2018-12-07T05:47:01.526Z,99.99
2018-12-07T05:48:01.516Z,99.99
2018-12-07T05:49:01.513Z,99.99
2018-12-07T05:50:01.487Z,99.99
2018-12-07T05:51:01.478Z,99.99
2018-12-07T05:52:01.471Z,99.99
2018-12-07T05:53:01.455Z,99.99
2018-12-07T05:54:01.500Z,99.99
2018-12-07T05:55:01.439Z,99.99
2018-12-07T05:56:01.427Z,99.99
2018-12-07T05:57:01.412Z,99.99
2018-12-07T05:58:01.400Z,99.99
2018-12-07T05:59:01.390Z,99.99
2018-12-07T06:00:01.407Z,99.99
2018-12-07T06:01:01.375Z,99.99
2018-12-07T06:02:01.362Z,99.99
2018-12-07T06:03:01.353Z,99.99
2018-12-07T06:04:01.348Z,99.99
2018-12-07T06:05:01.352Z,99.99
2018-12-07T06:06:01.322Z,99.99
2018-12-07T06:07:01.309Z,99.99
2018-12-07T06:08:01.293Z,99.99
2018-12-07T06:09:01.288Z,99.99
2018-12-07T06:10:01.274Z,99.99
2018-12-07T06:11:01.273Z,99.99
2018-12-07T06:12:01.255Z,99.99
2018-12-07T06:13:01.248Z,99.99
2018-12-07T06:14:01.235Z,99.99
2018-12-07T06:15:01.223Z,99.99
2018-12-07T06:16:01.253Z,99.99
2018-12-07T06:17:01.197Z,99.99
2018-12-07T06:18:01.185Z,99.99
2018-12-07T06:19:01.177Z,99.99
2018-12-07T06:20:01.169Z,99.99
2018-12-07T06:21:01.159Z,99.99
2018-12-07T06:22:01.187Z,99.99
2018-12-07T06:23:01.142Z,99.99
2018-12-07T06:24:01.126Z,99.99
2018-12-07T06:25:01.108Z,99.99
2018-12-07T06:26:01.101Z,99.99
2018-12-07T06:27:01.086Z,99.99
2018-12-07T06:28:01.113Z,99.99
2018-12-07T06:29:01.077Z,99.99
2018-12-07T06:30:01.056Z,99.99
2018-12-07T06:31:01.048Z,99.99
2018-12-07T06:32:01.042Z,99.99
2018-12-07T06:33:01.027Z,99.99
2018-12-07T06:34:01.603Z,99.99
2018-12-07T06:35:01.014Z,99.99
2018-12-07T06:36:00.990Z,99.99
2018-12-07T06:37:00.984Z,99.99
2018-12-07T06:38:00.973Z,99.99
2018-12-07T06:39:00.988Z,99.99
2018-12-07T06:40:00.954Z,99.99
2018-12-07T06:41:00.948Z,99.99
2018-12-07T06:42:00.926Z,99.99
2018-12-07T06:43:00.919Z,99.99
2018-12-07T06:44:00.903Z,99.99
2018-12-07T06:45:00.904Z,99.99
2018-12-07T06:46:00.914Z,99.99
2018-12-07T06:47:00.870Z,99.99
2018-12-07T06:48:00.872Z,99.99
2018-12-07T06:49:00.855Z,99.99
2018-12-07T06:50:00.838Z,99.99
2018-12-07T06:51:00.828Z,99.99
2018-12-07T06:52:00.831Z,99.99
2018-12-07T06:53:00.811Z,99.99
2018-12-07T06:54:00.797Z,99.99
2018-12-07T06:55:00.784Z,99.99
2018-12-07T06:56:00.775Z,99.99
2018-12-07T06:57:00.796Z,99.99
2018-12-07T06:58:00.752Z,99.99
2018-12-07T06:59:00.743Z,99.99
2018-12-07T07:00:00.736Z,99.99
2018-12-07T07:01:00.724Z,99.99
2018-12-07T07:02:00.714Z,99.99
2018-12-07T07:03:00.718Z,99.99
2018-12-07T07:04:00.695Z,99.99
2018-12-07T07:05:00.682Z,99.99
2018-12-07T07:06:00.668Z,99.99
2018-12-07T07:07:00.691Z,99.99
2018-12-07T07:08:00.688Z,99.99
2018-12-07T07:09:00.633Z,99.99
2018-12-07T07:10:00.628Z,99.99
2018-12-07T07:11:00.619Z,99.99
2018-12-07T07:12:00.606Z,99.99
2018-12-07T07:13:00.591Z,99.99
2018-12-07T07:14:00.590Z,99.99
2018-12-07T07:15:00.573Z,99.99
2018-12-07T07:16:00.557Z,99.99
2018-12-07T07:17:00.546Z,99.99
2018-12-07T07:18:00.536Z,99.99
2018-12-07T07:19:00.565Z,99.99
2018-12-07T07:20:00.522Z,99.99
2018-12-07T07:21:00.508Z,99.99
2018-12-07T07:22:00.493Z,99.99
2018-12-07T07:23:00.485Z,99.99
2018-12-07T07:24:00.477Z,99.99
2018-12-07T07:25:00.473Z,99.99
2018-12-07T07:26:00.451Z,99.99
2018-12-07T07:27:00.443Z,99.99
2018-12-07T07:28:00.429Z,99.99
2018-12-07T07:29:00.418Z,99.99
2018-12-07T07:30:00.418Z,99.99
2018-12-07T07:31:00.396Z,99.99
2018-12-07T07:32:00.385Z,99.99
2018-12-07T07:33:00.375Z,99.99
2018-12-07T07:34:00.378Z,99.99
2018-12-07T07:35:00.396Z,99.99
2018-12-07T07:36:00.346Z,99.99
2018-12-07T07:37:00.330Z,99.99
2018-12-07T07:38:00.327Z,99.99
2018-12-07T07:39:00.317Z,99.99
2018-12-07T07:40:00.310Z,99.99
2018-12-07T07:41:00.308Z,99.99
2018-12-07T07:42:00.285Z,99.99
2018-12-07T07:43:00.272Z,99.91
2018-12-07T07:44:00.260Z,99.99
2018-12-07T07:45:00.248Z,99.99
2018-12-07T07:46:00.288Z,99.98
2018-12-07T07:47:00.223Z,99.99
2018-12-07T07:48:00.216Z,99.99
2018-12-07T07:49:00.206Z,99.99
2018-12-07T07:50:00.191Z,99.98
2018-12-07T07:51:00.188Z,99.99
2018-12-07T07:52:00.184Z,99.77
2018-12-07T07:53:00.158Z,99.46
2018-12-07T07:54:00.147Z,99.77
2018-12-07T07:55:00.141Z,99.71
2018-12-07T07:56:00.126Z,99.66
2018-12-07T07:57:00.128Z,99.56
2018-12-07T07:58:00.104Z,99.82
2018-12-07T07:59:00.113Z,99.56
2018-12-07T08:00:00.087Z,99.82
2018-12-07T08:01:00.075Z,99.82
2018-12-07T08:02:00.070Z,99.56
2018-12-07T08:03:00.158Z,99.66
2018-12-07T08:04:00.046Z,99.66
2018-12-07T08:05:00.040Z,99.26
2018-12-07T08:06:00.018Z,99.26
2018-12-07T08:07:00.011Z,99.36
2018-12-07T08:08:00.001Z,99.05
2018-12-07T08:09:00.000Z,99.05
2018-12-07T08:09:59.978Z,99.15
2018-12-07T08:10:59.986Z,98.85
2018-12-07T08:11:59.955Z,99.26
2018-12-07T08:12:59.971Z,98.65
2018-12-07T08:13:59.942Z,98.95
2018-12-07T08:14:59.920Z,99.26
2018-12-07T08:15:59.908Z,99.26
2018-12-07T08:16:59.901Z,99.36
2018-12-07T08:17:59.887Z,99.36
2018-12-07T08:18:59.889Z,99.31
2018-12-07T08:19:59.883Z,99.26
2018-12-07T08:20:59.854Z,99.26
2018-12-07T08:21:59.845Z,99.26
2018-12-07T08:22:59.832Z,99.56
2018-12-07T08:23:59.841Z,99.46
2018-12-07T08:24:59.822Z,98.90
2018-12-07T08:25:59.806Z,99.21
2018-12-07T08:26:59.789Z,99.52
2018-12-07T08:27:59.783Z,98.29
2018-12-07T08:28:59.783Z,98.80
2018-12-07T08:29:59.767Z,98.29
2018-12-07T08:30:59.752Z,98.19
2018-12-07T08:31:59.827Z,98.60
2018-12-07T08:32:59.724Z,98.19
2018-12-07T08:34:00.312Z,98.39
2018-12-07T08:34:59.709Z,98.29
2018-12-07T08:35:59.696Z,98.49
2018-12-07T08:36:59.683Z,98.08
2018-12-07T08:37:59.675Z,98.80
2018-12-07T08:38:59.670Z,98.80
2018-12-07T08:39:59.652Z,98.70
2018-12-07T08:40:59.637Z,98.70
2018-12-07T08:42:06.486Z,98.08
2018-12-07T08:43:00.621Z,98.08
2018-12-07T08:44:06.699Z,97.98
2018-12-07T08:44:59.604Z,97.67
2018-12-07T08:46:07.183Z,97.37
2018-12-07T08:46:59.578Z,97.02
2018-12-07T08:47:59.567Z,98.14
2018-12-07T08:48:59.552Z,97.94
2018-12-07T08:49:59.581Z,97.74
2018-12-07T08:50:59.535Z,97.94
2018-12-07T08:51:59.528Z,97.88
2018-12-07T08:52:59.513Z,97.74
2018-12-07T08:53:59.502Z,97.67
2018-12-07T08:54:59.491Z,97.33
2018-12-07T08:55:59.486Z,98.24
2018-12-07T08:56:59.470Z,98.14
2018-12-07T08:57:59.462Z,97.83
2018-12-07T08:58:59.449Z,98.04
2018-12-07T08:59:59.434Z,98.24
2018-12-07T09:00:59.475Z,97.42
2018-12-07T09:01:59.411Z,97.12
2018-12-07T09:02:59.405Z,96.81
2018-12-07T09:03:59.392Z,97.12
2018-12-07T09:04:59.384Z,96.71
2018-12-07T09:05:59.367Z,97.33
2018-12-07T09:06:59.372Z,96.71
2018-12-07T09:07:59.351Z,96.92
2018-12-07T09:08:59.341Z,96.71
2018-12-07T09:09:59.333Z,96.30
2018-12-07T09:10:59.320Z,96.30
2018-12-07T09:11:59.321Z,96.81
2018-12-07T09:12:59.299Z,96.77
2018-12-07T09:13:59.299Z,96.46
2018-12-07T09:14:59.280Z,96.92
2018-12-07T09:15:59.268Z,97.02
2018-12-07T09:16:59.251Z,96.30
2018-12-07T09:17:59.240Z,96.20
2018-12-07T09:18:59.244Z,96.36
2018-12-07T09:19:59.218Z,96.15
2018-12-07T09:20:59.236Z,96.36
2018-12-07T09:21:59.204Z,96.30
2018-12-07T09:22:59.199Z,96.46
2018-12-07T09:23:59.176Z,96.36
2018-12-07T09:24:59.375Z,96.36
2018-12-07T09:25:59.163Z,96.15
2018-12-07T09:26:59.142Z,96.05
2018-12-07T09:27:59.136Z,96.15
2018-12-07T09:28:59.127Z,97.08
2018-12-07T09:29:59.111Z,97.17
2018-12-07T09:30:59.118Z,97.08
2018-12-07T09:31:59.089Z,97.17
2018-12-07T09:32:59.084Z,97.08
2018-12-07T09:33:59.086Z,96.97
2018-12-07T09:34:59.063Z,96.56
2018-12-07T09:35:59.052Z,96.87
2018-12-07T09:36:59.041Z,97.08
2018-12-07T09:37:59.033Z,96.56
2018-12-07T09:38:59.057Z,97.08
2018-12-07T09:39:59.004Z,97.38
2018-12-07T09:40:58.993Z,96.67
2018-12-07T09:41:58.981Z,96.46
2018-12-07T09:42:58.973Z,96.77
2018-12-07T09:43:58.962Z,96.87
2018-12-07T09:44:58.967Z,96.67
2018-12-07T09:45:58.941Z,97.17
2018-12-07T09:46:58.937Z,96.87
2018-12-07T09:47:58.923Z,96.97
2018-12-07T09:48:58.912Z,96.56
2018-12-07T09:49:58.908Z,96.97
2018-12-07T09:50:58.891Z,96.97
2018-12-07T09:51:58.876Z,97.08
2018-12-07T09:52:58.869Z,96.97
2018-12-07T09:53:58.855Z,96.67
2018-12-07T09:54:58.855Z,96.87
2018-12-07T09:55:58.838Z,97.17
2018-12-07T09:56:58.829Z,97.03
2018-12-07T09:57:58.812Z,96.56
2018-12-07T09:58:58.805Z,97.17
2018-12-07T09:59:58.809Z,96.56
2018-12-07T10:00:58.786Z,96.77
2018-12-07T10:01:58.768Z,96.67
2018-12-07T10:02:58.767Z,96.51
2018-12-07T10:03:58.755Z,97.38
2018-12-07T10:04:58.762Z,96.42
2018-12-07T10:05:58.725Z,96.21
2018-12-07T10:06:58.715Z,96.15
2018-12-07T10:07:58.723Z,96.01
2018-12-07T10:08:58.699Z,95.80
2018-12-07T10:09:58.692Z,96.01
2018-12-07T10:10:58.699Z,96.01
2018-12-07T10:11:58.661Z,96.42
2018-12-07T10:12:58.657Z,95.19
2018-12-07T10:13:58.645Z,95.60
2018-12-07T10:14:58.628Z,95.70
2018-12-07T10:15:58.635Z,95.80
2018-12-07T10:16:58.622Z,95.60
2018-12-07T10:17:58.620Z,95.60
2018-12-07T10:18:58.595Z,94.98
2018-12-07T10:19:58.576Z,94.48
2018-12-07T10:20:58.626Z,94.68
2018-12-07T10:21:58.565Z,94.64
2018-12-07T10:22:58.544Z,94.12
2018-12-07T10:23:58.534Z,93.62
2018-12-07T10:24:58.521Z,93.10
2018-12-07T10:25:58.510Z,93.21
2018-12-07T10:26:58.516Z,93.21
2018-12-07T10:27:58.500Z,93.31
2018-12-07T10:28:58.487Z,93.10
2018-12-07T10:29:58.469Z,92.69
2018-12-07T10:30:58.458Z,92.86
2018-12-07T10:31:58.470Z,92.65
2018-12-07T10:32:58.437Z,93.00
2018-12-07T10:33:58.430Z,93.16
2018-12-07T10:34:58.420Z,92.65
2018-12-07T10:35:58.403Z,92.76
2018-12-07T10:36:58.399Z,92.86
2018-12-07T10:37:58.394Z,91.53
2018-12-07T10:38:58.404Z,92.04
2018-12-07T10:39:58.361Z,92.35
2018-12-07T10:40:58.365Z,91.53
2018-12-07T10:41:59.876Z,91.94
2018-12-07T10:42:58.333Z,91.12
2018-12-07T10:43:58.318Z,91.43
2018-12-07T10:44:58.308Z,91.43
2018-12-07T10:45:58.313Z,90.81
2018-12-07T10:46:58.296Z,91.18
2018-12-07T10:47:58.276Z,91.18
2018-12-07T10:48:58.277Z,91.83
2018-12-07T10:49:58.260Z,91.39
2018-12-07T10:50:58.249Z,90.77
2018-12-07T10:51:58.242Z,91.08
2018-12-07T10:52:58.222Z,91.02
2018-12-07T10:53:58.265Z,91.12
2018-12-07T10:54:58.206Z,91.12
2018-12-07T10:55:58.201Z,91.02
2018-12-07T10:56:58.181Z,90.77
2018-12-07T10:57:58.174Z,91.74
2018-12-07T10:58:58.163Z,91.43
2018-12-07T10:59:58.194Z,91.22
2018-12-07T11:00:58.144Z,91.02
2018-12-07T11:01:58.135Z,90.92
2018-12-07T11:02:58.117Z,90.77
2018-12-07T11:03:58.107Z,90.98
2018-12-07T11:04:58.103Z,90.67
2018-12-07T11:05:58.097Z,90.77
2018-12-07T11:06:58.079Z,90.88
2018-12-07T11:07:58.062Z,90.16
2018-12-07T11:08:58.053Z,90.77
2018-12-07T11:09:58.054Z,90.57
2018-12-07T11:10:58.039Z,89.86
2018-12-07T11:11:58.025Z,90.57
2018-12-07T11:12:58.008Z,90.26
2018-12-07T11:13:57.999Z,89.96
2018-12-07T11:14:58.005Z,90.06
2018-12-07T11:15:57.989Z,89.96
2018-12-07T11:16:57.966Z,89.75
2018-12-07T11:17:57.972Z,90.36
2018-12-07T11:18:57.950Z,89.75
2018-12-07T11:19:57.933Z,89.86
2018-12-07T11:20:57.966Z,89.96
2018-12-07T11:21:57.921Z,89.65
2018-12-07T11:22:57.909Z,89.61
2018-12-07T11:23:57.891Z,89.30
2018-12-07T11:24:57.885Z,89.92
2018-12-07T11:25:57.873Z,90.63
2018-12-07T11:26:57.878Z,90.42
2018-12-07T11:27:57.857Z,90.47
2018-12-07T11:28:57.840Z,90.42
2018-12-07T11:29:57.832Z,89.61
2018-12-07T11:30:57.819Z,90.06
2018-12-07T11:31:57.817Z,89.61
2018-12-07T11:32:57.801Z,90.53
2018-12-07T11:33:57.792Z,90.42
2018-12-07T11:34:57.773Z,89.61
2018-12-07T11:35:57.766Z,89.81
2018-12-07T11:36:57.769Z,89.71
2018-12-07T11:37:57.744Z,90.01
2018-12-07T11:38:57.739Z,90.16
2018-12-07T11:39:57.730Z,90.26
2018-12-07T11:40:57.715Z,90.57
2018-12-07T11:41:57.722Z,90.16
2018-12-07T11:42:57.694Z,89.55
2018-12-07T11:43:57.682Z,90.57
2018-12-07T11:44:57.678Z,90.26
2018-12-07T11:45:57.662Z,90.47
2018-12-07T11:46:57.649Z,90.47
2018-12-07T11:47:57.650Z,90.32
2018-12-07T11:48:57.631Z,90.57
2018-12-07T11:49:57.615Z,90.77
2018-12-07T11:50:57.606Z,91.03
2018-12-07T11:51:57.630Z,91.79
2018-12-07T11:52:57.589Z,91.18
2018-12-07T11:53:57.572Z,91.59
2018-12-07T11:54:57.568Z,91.08
2018-12-07T11:55:57.550Z,90.57
2018-12-07T11:56:57.545Z,91.39
2018-12-07T11:57:57.547Z,91.39
2018-12-07T11:58:57.518Z,91.39
2018-12-07T11:59:57.512Z,91.69
2018-12-07T12:00:57.504Z,91.89
2018-12-07T12:01:57.494Z,92.65
2018-12-07T12:02:57.489Z,92.50
2018-12-07T12:03:57.475Z,92.86
2018-12-07T12:04:57.474Z,92.76
2018-12-07T12:05:57.456Z,92.86
2018-12-07T12:06:57.433Z,93.22
2018-12-07T12:07:57.442Z,92.65
2018-12-07T12:08:57.419Z,93.77
2018-12-07T12:09:57.419Z,93.16
2018-12-07T12:10:57.469Z,93.57
2018-12-07T12:11:57.393Z,94.70
2018-12-07T12:12:57.376Z,95.00
2018-12-07T12:13:57.374Z,95.15
2018-12-07T12:14:57.355Z,95.72
2018-12-07T12:15:57.339Z,96.33
2018-12-07T12:16:57.327Z,96.02
2018-12-07T12:17:57.324Z,96.58
2018-12-07T12:18:57.350Z,96.68
2018-12-07T12:19:57.306Z,97.39
2018-12-07T12:20:57.293Z,96.98
2018-12-07T12:21:57.279Z,97.19
2018-12-07T12:22:57.269Z,97.08
2018-12-07T12:23:57.260Z,96.98
2018-12-07T12:24:57.256Z,96.83
2018-12-07T12:25:57.236Z,96.88
2018-12-07T12:26:57.222Z,96.68
2018-12-07T12:27:57.209Z,96.37
2018-12-07T12:28:57.204Z,96.72
2018-12-07T12:29:57.199Z,97.39
2018-12-07T12:30:57.191Z,97.33
2018-12-07T12:31:57.169Z,96.68
2018-12-07T12:32:57.177Z,96.98
2018-12-07T12:33:57.152Z,96.58
2018-12-07T12:34:57.144Z,96.92
2018-12-07T12:35:57.164Z,97.03
2018-12-07T12:36:57.117Z,97.29
2018-12-07T12:37:57.108Z,97.08
2018-12-07T12:38:57.099Z,97.24
2018-12-07T12:39:57.081Z,98.25
2018-12-07T12:40:57.072Z,97.54
2018-12-07T12:41:57.080Z,97.74
2018-12-07T12:42:57.046Z,97.70
2018-12-07T12:43:57.038Z,97.85
2018-12-07T12:44:57.025Z,98.15
2018-12-07T12:45:57.020Z,98.15
2018-12-07T12:46:57.005Z,98.05
2018-12-07T12:47:57.021Z,98.56
2018-12-07T12:48:56.987Z,97.95
2018-12-07T12:49:56.973Z,98.15
2018-12-07T12:50:56.966Z,98.36
2018-12-07T12:51:56.954Z,98.56